sensor_id;sensor_type;location;lat;lon;timestamp;temperature;humidity
22442;DHT22;11388;54.456;9.752;2023-05-21T00:52:34;14.10;99.90
22442;DHT22;11388;54.456;9.752;2023-05-21T00:58:30;14.10;99.90
22442;DHT22;11388;54.456;9.752;2023-05-21T03:38:33;13.80;99.90
22442;DHT22;11388;54.456;9.752;2023-05-21T03:40:59;13.80;99.90
22442;DHT22;11388;54.456;9.752;2023-05-21T03:43:47;13.80;99.90
22442;DHT22;11388;54.456;9.752;2023-05-21T03:46:24;13.90;99.90
22442;DHT22;11388;54.456;9.752;2023-05-21T04:09:22;14.10;99.90
22442;DHT22;11388;54.456;9.752;2023-05-21T04:11:48;14.20;99.90
22442;DHT22;11388;54.456;9.752;2023-05-21T04:14:13;14.20;99.90
22442;DHT22;11388;54.456;9.752;2023-05-21T04:16:39;14.20;99.90
22442;DHT22;11388;54.456;9.752;2023-05-21T04:19:08;14.30;99.90
22442;DHT22;11388;54.456;9.752;2023-05-21T04:21:34;14.30;99.90
22442;DHT22;11388;54.456;9.752;2023-05-21T04:24:00;14.30;99.90
22442;DHT22;11388;54.456;9.752;2023-05-21T04:26:26;14.30;99.90
22442;DHT22;11388;54.456;9.752;2023-05-21T04:28:52;14.30;99.90
22442;DHT22;11388;54.456;9.752;2023-05-21T04:31:26;14.50;99.90
22442;DHT22;11388;54.456;9.752;2023-05-21T04:33:52;14.50;99.90
22442;DHT22;11388;54.456;9.752;2023-05-21T04:36:18;14.60;99.90
22442;DHT22;11388;54.456;9.752;2023-05-21T04:38:44;14.60;99.90
22442;DHT22;11388;54.456;9.752;2023-05-21T04:41:10;14.60;99.90
22442;DHT22;11388;54.456;9.752;2023-05-21T04:43:35;14.70;99.90
22442;DHT22;11388;54.456;9.752;2023-05-21T04:46:02;14.70;99.90
22442;DHT22;11388;54.456;9.752;2023-05-21T04:48:28;14.60;99.90
22442;DHT22;11388;54.456;9.752;2023-05-21T04:50:54;14.60;99.90
22442;DHT22;11388;54.456;9.752;2023-05-21T04:53:21;14.70;99.90
22442;DHT22;11388;54.456;9.752;2023-05-21T04:55:47;14.70;99.90
22442;DHT22;11388;54.456;9.752;2023-05-21T04:58:13;14.80;99.90
22442;DHT22;11388;54.456;9.752;2023-05-21T05:00:39;14.80;99.90
22442;DHT22;11388;54.456;9.752;2023-05-21T05:03:06;14.80;99.90
22442;DHT22;11388;54.456;9.752;2023-05-21T05:05:32;14.70;99.90
22442;DHT22;11388;54.456;9.752;2023-05-21T05:07:57;14.70;99.90
22442;DHT22;11388;54.456;9.752;2023-05-21T05:10:23;14.70;99.90
22442;DHT22;11388;54.456;9.752;2023-05-21T05:12:49;14.60;99.90
22442;DHT22;11388;54.456;9.752;2023-05-21T05:15:15;14.60;99.90
22442;DHT22;11388;54.456;9.752;2023-05-21T05:17:40;14.60;99.90
22442;DHT22;11388;54.456;9.752;2023-05-21T05:20:07;14.50;99.90
22442;DHT22;11388;54.456;9.752;2023-05-21T05:22:33;14.50;99.90
22442;DHT22;11388;54.456;9.752;2023-05-21T05:24:59;14.60;99.90
22442;DHT22;11388;54.456;9.752;2023-05-21T05:27:24;14.70;99.90
22442;DHT22;11388;54.456;9.752;2023-05-21T05:29:50;14.70;99.90
22442;DHT22;11388;54.456;9.752;2023-05-21T05:32:16;14.70;99.90
22442;DHT22;11388;54.456;9.752;2023-05-21T05:34:43;14.80;99.90
22442;DHT22;11388;54.456;9.752;2023-05-21T05:37:09;14.80;99.90
22442;DHT22;11388;54.456;9.752;2023-05-21T05:39:35;14.80;99.90
22442;DHT22;11388;54.456;9.752;2023-05-21T05:42:00;14.80;99.90
22442;DHT22;11388;54.456;9.752;2023-05-21T05:44:26;14.80;99.90
22442;DHT22;11388;54.456;9.752;2023-05-21T05:46:52;14.90;99.90
22442;DHT22;11388;54.456;9.752;2023-05-21T05:49:17;14.90;99.90
22442;DHT22;11388;54.456;9.752;2023-05-21T05:51:43;14.80;99.90
22442;DHT22;11388;54.456;9.752;2023-05-21T05:54:09;14.80;99.90
22442;DHT22;11388;54.456;9.752;2023-05-21T05:56:35;14.80;99.90
22442;DHT22;11388;54.456;9.752;2023-05-21T05:59:00;14.90;99.90
22442;DHT22;11388;54.456;9.752;2023-05-21T06:01:26;14.90;99.90
22442;DHT22;11388;54.456;9.752;2023-05-21T06:03:52;14.90;99.90
22442;DHT22;11388;54.456;9.752;2023-05-21T06:06:18;15.00;99.90
22442;DHT22;11388;54.456;9.752;2023-05-21T06:08:47;14.90;99.90
22442;DHT22;11388;54.456;9.752;2023-05-21T06:11:16;14.90;99.90
22442;DHT22;11388;54.456;9.752;2023-05-21T06:13:44;14.90;99.90
22442;DHT22;11388;54.456;9.752;2023-05-21T06:16:10;14.90;99.90
22442;DHT22;11388;54.456;9.752;2023-05-21T06:18:37;15.00;99.90
22442;DHT22;11388;54.456;9.752;2023-05-21T06:21:05;15.00;99.90
22442;DHT22;11388;54.456;9.752;2023-05-21T06:23:31;15.10;99.90
22442;DHT22;11388;54.456;9.752;2023-05-21T06:25:57;15.10;99.90
22442;DHT22;11388;54.456;9.752;2023-05-21T06:28:22;15.10;99.90
22442;DHT22;11388;54.456;9.752;2023-05-21T06:30:48;15.10;99.90
22442;DHT22;11388;54.456;9.752;2023-05-21T06:33:14;15.20;99.90
22442;DHT22;11388;54.456;9.752;2023-05-21T06:35:40;15.20;99.90
22442;DHT22;11388;54.456;9.752;2023-05-21T06:38:11;15.40;99.90
22442;DHT22;11388;54.456;9.752;2023-05-21T06:40:36;15.40;99.90
22442;DHT22;11388;54.456;9.752;2023-05-21T06:43:02;15.40;99.90
22442;DHT22;11388;54.456;9.752;2023-05-21T06:45:29;15.50;99.90
22442;DHT22;11388;54.456;9.752;2023-05-21T06:47:55;15.50;99.90
22442;DHT22;11388;54.456;9.752;2023-05-21T06:50:21;15.60;99.90
22442;DHT22;11388;54.456;9.752;2023-05-21T06:52:50;15.70;99.90
22442;DHT22;11388;54.456;9.752;2023-05-21T06:55:19;15.80;99.90
22442;DHT22;11388;54.456;9.752;2023-05-21T06:57:45;15.80;99.90
22442;DHT22;11388;54.456;9.752;2023-05-21T07:00:15;15.90;99.90
22442;DHT22;11388;54.456;9.752;2023-05-21T07:02:43;16.00;99.90
22442;DHT22;11388;54.456;9.752;2023-05-21T07:05:09;16.10;99.90
22442;DHT22;11388;54.456;9.752;2023-05-21T07:07:35;16.20;99.90
22442;DHT22;11388;54.456;9.752;2023-05-21T07:10:07;16.20;99.90
22442;DHT22;11388;54.456;9.752;2023-05-21T07:12:35;16.30;99.90
22442;DHT22;11388;54.456;9.752;2023-05-21T07:15:28;16.30;99.90
22442;DHT22;11388;54.456;9.752;2023-05-21T07:17:53;16.40;99.90
22442;DHT22;11388;54.456;9.752;2023-05-21T07:20:39;16.50;99.90
22442;DHT22;11388;54.456;9.752;2023-05-21T07:23:07;16.60;99.90
22442;DHT22;11388;54.456;9.752;2023-05-21T07:25:33;16.70;99.90
22442;DHT22;11388;54.456;9.752;2023-05-21T07:28:05;16.80;99.90
22442;DHT22;11388;54.456;9.752;2023-05-21T07:30:34;16.90;99.90
22442;DHT22;11388;54.456;9.752;2023-05-21T07:33:00;17.00;99.90
22442;DHT22;11388;54.456;9.752;2023-05-21T07:35:26;17.00;99.90
22442;DHT22;11388;54.456;9.752;2023-05-21T07:37:51;17.10;99.90
22442;DHT22;11388;54.456;9.752;2023-05-21T07:40:20;17.20;99.90
22442;DHT22;11388;54.456;9.752;2023-05-21T07:42:46;17.30;99.90
22442;DHT22;11388;54.456;9.752;2023-05-21T07:45:14;17.30;99.90
22442;DHT22;11388;54.456;9.752;2023-05-21T07:47:43;17.30;99.90
22442;DHT22;11388;54.456;9.752;2023-05-21T07:50:13;17.40;99.90
22442;DHT22;11388;54.456;9.752;2023-05-21T07:52:47;17.50;99.90
22442;DHT22;11388;54.456;9.752;2023-05-21T07:55:13;17.50;99.90
22442;DHT22;11388;54.456;9.752;2023-05-21T07:57:39;17.60;99.90
22442;DHT22;11388;54.456;9.752;2023-05-21T08:00:06;17.70;99.90
22442;DHT22;11388;54.456;9.752;2023-05-21T08:02:44;17.80;99.90
22442;DHT22;11388;54.456;9.752;2023-05-21T08:05:12;17.80;99.90
22442;DHT22;11388;54.456;9.752;2023-05-21T08:07:40;18.00;99.90
22442;DHT22;11388;54.456;9.752;2023-05-21T08:10:06;18.10;99.90
22442;DHT22;11388;54.456;9.752;2023-05-21T08:12:47;18.10;99.90
22442;DHT22;11388;54.456;9.752;2023-05-21T08:15:13;18.20;99.90
22442;DHT22;11388;54.456;9.752;2023-05-21T08:17:41;18.30;99.90
22442;DHT22;11388;54.456;9.752;2023-05-21T08:20:07;18.40;99.90
22442;DHT22;11388;54.456;9.752;2023-05-21T08:22:32;18.40;99.90
22442;DHT22;11388;54.456;9.752;2023-05-21T08:24:58;18.50;99.90
22442;DHT22;11388;54.456;9.752;2023-05-21T08:27:24;18.60;99.90
22442;DHT22;11388;54.456;9.752;2023-05-21T08:29:50;18.70;99.90
22442;DHT22;11388;54.456;9.752;2023-05-21T08:32:16;18.90;99.90
22442;DHT22;11388;54.456;9.752;2023-05-21T08:34:42;18.90;99.90
22442;DHT22;11388;54.456;9.752;2023-05-21T08:37:08;18.90;99.90
22442;DHT22;11388;54.456;9.752;2023-05-21T08:39:34;19.10;99.90
22442;DHT22;11388;54.456;9.752;2023-05-21T08:42:10;19.10;99.90
22442;DHT22;11388;54.456;9.752;2023-05-21T08:44:41;19.10;99.90
22442;DHT22;11388;54.456;9.752;2023-05-21T08:47:09;19.10;99.90
22442;DHT22;11388;54.456;9.752;2023-05-21T08:49:39;19.20;99.90
22442;DHT22;11388;54.456;9.752;2023-05-21T08:52:07;19.30;99.90
22442;DHT22;11388;54.456;9.752;2023-05-21T08:54:35;19.40;99.90
22442;DHT22;11388;54.456;9.752;2023-05-21T08:57:02;19.40;99.90
22442;DHT22;11388;54.456;9.752;2023-05-21T08:59:28;19.50;99.90
22442;DHT22;11388;54.456;9.752;2023-05-21T09:01:55;19.70;99.90
22442;DHT22;11388;54.456;9.752;2023-05-21T09:04:22;19.80;99.90
22442;DHT22;11388;54.456;9.752;2023-05-21T09:06:48;19.90;99.90
22442;DHT22;11388;54.456;9.752;2023-05-21T09:09:32;19.80;99.90
22442;DHT22;11388;54.456;9.752;2023-05-21T09:11:58;19.80;99.90
22442;DHT22;11388;54.456;9.752;2023-05-21T09:14:25;20.00;99.90
22442;DHT22;11388;54.456;9.752;2023-05-21T09:16:51;20.00;99.90
22442;DHT22;11388;54.456;9.752;2023-05-21T09:19:19;19.90;99.90
22442;DHT22;11388;54.456;9.752;2023-05-21T10:03:59;20.60;99.90
22442;DHT22;11388;54.456;9.752;2023-05-21T10:06:27;20.50;99.90
22442;DHT22;11388;54.456;9.752;2023-05-21T10:08:58;20.60;99.90
22442;DHT22;11388;54.456;9.752;2023-05-21T10:11:26;20.70;99.90
22442;DHT22;11388;54.456;9.752;2023-05-21T10:14:36;20.70;99.90
22442;DHT22;11388;54.456;9.752;2023-05-21T10:16:44;20.90;99.90
22442;DHT22;11388;54.456;9.752;2023-05-21T10:19:12;20.90;99.90
22442;DHT22;11388;54.456;9.752;2023-05-21T10:21:40;21.00;99.90
22442;DHT22;11388;54.456;9.752;2023-05-21T10:24:07;21.10;99.90
22442;DHT22;11388;54.456;9.752;2023-05-21T10:26:33;21.00;99.90
22442;DHT22;11388;54.456;9.752;2023-05-21T10:29:01;21.00;99.90
22442;DHT22;11388;54.456;9.752;2023-05-21T10:31:30;21.10;99.90
22442;DHT22;11388;54.456;9.752;2023-05-21T10:33:58;21.10;99.90
22442;DHT22;11388;54.456;9.752;2023-05-21T10:36:25;21.10;99.90
22442;DHT22;11388;54.456;9.752;2023-05-21T10:39:21;21.20;99.90
22442;DHT22;11388;54.456;9.752;2023-05-21T11:32:15;22.20;99.90
22442;DHT22;11388;54.456;9.752;2023-05-21T11:35:22;22.40;99.90
22442;DHT22;11388;54.456;9.752;2023-05-21T12:29:59;24.20;99.90
22442;DHT22;11388;54.456;9.752;2023-05-21T12:39:48;26.20;99.90
22442;DHT22;11388;54.456;9.752;2023-05-21T12:42:24;26.80;99.90
22442;DHT22;11388;54.456;9.752;2023-05-21T12:44:52;27.60;99.90
22442;DHT22;11388;54.456;9.752;2023-05-21T12:47:28;28.50;99.90
22442;DHT22;11388;54.456;9.752;2023-05-21T12:50:06;28.50;99.90
22442;DHT22;11388;54.456;9.752;2023-05-21T12:52:42;28.90;99.90
22442;DHT22;11388;54.456;9.752;2023-05-21T12:55:12;29.00;98.40
22442;DHT22;11388;54.456;9.752;2023-05-21T12:58:11;29.10;98.50
22442;DHT22;11388;54.456;9.752;2023-05-21T13:01:07;28.80;97.80
22442;DHT22;11388;54.456;9.752;2023-05-21T13:03:40;28.60;97.50
22442;DHT22;11388;54.456;9.752;2023-05-21T14:30:01;22.90;99.90
22442;DHT22;11388;54.456;9.752;2023-05-21T14:32:35;23.00;99.90
22442;DHT22;11388;54.456;9.752;2023-05-21T14:35:33;23.10;99.90
22442;DHT22;11388;54.456;9.752;2023-05-21T14:38:18;23.00;99.90
22442;DHT22;11388;54.456;9.752;2023-05-21T14:54:28;22.90;99.90
22442;DHT22;11388;54.456;9.752;2023-05-21T14:56:54;23.00;99.90
22442;DHT22;11388;54.456;9.752;2023-05-21T14:59:20;23.20;99.90
22442;DHT22;11388;54.456;9.752;2023-05-21T15:01:45;23.30;99.90
22442;DHT22;11388;54.456;9.752;2023-05-21T15:04:11;23.20;99.90
22442;DHT22;11388;54.456;9.752;2023-05-21T15:06:37;23.20;99.90
22442;DHT22;11388;54.456;9.752;2023-05-21T15:09:02;23.20;99.90
22442;DHT22;11388;54.456;9.752;2023-05-21T15:15:23;23.30;99.90
22442;DHT22;11388;54.456;9.752;2023-05-21T15:17:49;23.30;99.90
22442;DHT22;11388;54.456;9.752;2023-05-21T15:20:15;23.50;99.90
22442;DHT22;11388;54.456;9.752;2023-05-21T15:23:06;23.50;99.90
22442;DHT22;11388;54.456;9.752;2023-05-21T15:25:32;23.60;99.90
22442;DHT22;11388;54.456;9.752;2023-05-21T15:27:58;23.60;99.90
22442;DHT22;11388;54.456;9.752;2023-05-21T15:30:23;23.80;99.90
22442;DHT22;11388;54.456;9.752;2023-05-21T15:32:52;24.10;99.90
22442;DHT22;11388;54.456;9.752;2023-05-21T15:35:17;24.00;99.90
22442;DHT22;11388;54.456;9.752;2023-05-21T15:37:43;24.20;99.90
22442;DHT22;11388;54.456;9.752;2023-05-21T15:40:28;24.10;99.90
22442;DHT22;11388;54.456;9.752;2023-05-21T15:42:54;24.10;99.90
22442;DHT22;11388;54.456;9.752;2023-05-21T15:45:20;24.20;99.90
22442;DHT22;11388;54.456;9.752;2023-05-21T15:47:45;24.50;99.90
22442;DHT22;11388;54.456;9.752;2023-05-21T15:50:11;24.50;99.90
22442;DHT22;11388;54.456;9.752;2023-05-21T15:52:37;24.50;99.90
22442;DHT22;11388;54.456;9.752;2023-05-21T15:55:03;24.30;99.90
22442;DHT22;11388;54.456;9.752;2023-05-21T15:57:29;24.10;99.90
22442;DHT22;11388;54.456;9.752;2023-05-21T15:59:54;24.00;99.90
22442;DHT22;11388;54.456;9.752;2023-05-21T16:02:20;24.10;99.90
22442;DHT22;11388;54.456;9.752;2023-05-21T17:01:56;23.40;99.90
22442;DHT22;11388;54.456;9.752;2023-05-21T17:05:12;23.30;99.90
22442;DHT22;11388;54.456;9.752;2023-05-21T17:10:40;23.40;99.90
22442;DHT22;11388;54.456;9.752;2023-05-21T17:13:28;23.20;99.90
22442;DHT22;11388;54.456;9.752;2023-05-21T17:16:04;23.00;99.90
22442;DHT22;11388;54.456;9.752;2023-05-21T17:18:35;22.90;99.90
22442;DHT22;11388;54.456;9.752;2023-05-21T17:38:20;22.00;99.90
22442;DHT22;11388;54.456;9.752;2023-05-21T17:40:46;21.80;99.90
22442;DHT22;11388;54.456;9.752;2023-05-21T17:43:13;21.70;99.90
22442;DHT22;11388;54.456;9.752;2023-05-21T17:45:38;21.60;99.90
22442;DHT22;11388;54.456;9.752;2023-05-21T17:48:04;21.40;99.90
22442;DHT22;11388;54.456;9.752;2023-05-21T17:50:30;21.30;99.90
22442;DHT22;11388;54.456;9.752;2023-05-21T17:52:56;21.30;99.90
22442;DHT22;11388;54.456;9.752;2023-05-21T17:55:22;21.10;99.90
22442;DHT22;11388;54.456;9.752;2023-05-21T17:57:47;21.00;99.90
22442;DHT22;11388;54.456;9.752;2023-05-21T18:00:13;21.00;99.90
22442;DHT22;11388;54.456;9.752;2023-05-21T18:02:39;20.90;99.90
22442;DHT22;11388;54.456;9.752;2023-05-21T18:05:05;20.70;99.90
22442;DHT22;11388;54.456;9.752;2023-05-21T18:07:30;20.60;99.90
22442;DHT22;11388;54.456;9.752;2023-05-21T18:09:56;20.60;99.90
22442;DHT22;11388;54.456;9.752;2023-05-21T18:12:22;20.50;99.90
22442;DHT22;11388;54.456;9.752;2023-05-21T18:14:48;20.40;99.90
22442;DHT22;11388;54.456;9.752;2023-05-21T18:17:13;20.50;99.90
22442;DHT22;11388;54.456;9.752;2023-05-21T18:19:39;20.40;99.90
22442;DHT22;11388;54.456;9.752;2023-05-21T18:22:05;20.30;99.90
22442;DHT22;11388;54.456;9.752;2023-05-21T18:27:30;20.20;99.90
22442;DHT22;11388;54.456;9.752;2023-05-21T18:29:59;20.20;99.90
22442;DHT22;11388;54.456;9.752;2023-05-21T18:32:31;20.20;99.90
22442;DHT22;11388;54.456;9.752;2023-05-21T18:35:03;20.10;99.90
22442;DHT22;11388;54.456;9.752;2023-05-21T19:29:54;18.80;99.90
22442;DHT22;11388;54.456;9.752;2023-05-21T20:15:41;17.90;99.90
22442;DHT22;11388;54.456;9.752;2023-05-21T21:54:58;17.00;99.90
22442;DHT22;11388;54.456;9.752;2023-05-21T22:33:48;16.80;99.90
22442;DHT22;11388;54.456;9.752;2023-05-21T22:36:53;16.80;99.90
22442;DHT22;11388;54.456;9.752;2023-05-21T22:39:50;16.80;99.90
22442;DHT22;11388;54.456;9.752;2023-05-21T22:42:33;16.80;99.90
22442;DHT22;11388;54.456;9.752;2023-05-21T22:52:40;16.80;99.90
22442;DHT22;11388;54.456;9.752;2023-05-21T22:55:48;16.80;99.90
22442;DHT22;11388;54.456;9.752;2023-05-21T22:58:37;16.80;99.90
22442;DHT22;11388;54.456;9.752;2023-05-21T23:01:33;16.70;99.90
